Time;durP1;ratioP1;P1;durP2;ratioP2;P2;SDS_P1;SDS_P2;PMS_P1;PMS_P2;Temp;Humidity;BMP_temperature;BMP_pressure;BME280_temperature;BME280_humidity;BME280_pressure;Samples;Min_cycle;Max_cycle;Signal;HPM_P1;HPM_P2
2021/04/07 00:00:12;;;;;;;12.20;5.33;;;;;;;-0.02;100.00;95683.00;5058984;28;20211;-69
2021/04/07 00:02:39;;;;;;;8.67;5.40;;;;;;;0.06;100.00;95695.31;5058472;28;20205;-71
2021/04/07 00:05:08;;;;;;;7.87;5.17;;;;;;;0.07;100.00;95687.41;5058158;28;20232;-69
2021/04/07 00:07:34;;;;;;;9.10;4.60;;;;;;;0.02;100.00;95688.75;5058088;28;20201;-67
2021/04/07 00:10:00;;;;;;;8.50;5.03;;;;;;;0.07;100.00;95684.00;5058879;28;20215;-71
2021/04/07 00:12:26;;;;;;;11.63;4.63;;;;;;;0.13;100.00;95692.09;5058506;28;20328;-69
2021/04/07 00:14:53;;;;;;;8.43;4.33;;;;;;;0.01;100.00;95687.94;5058095;28;20722;-71
2021/04/07 00:17:19;;;;;;;9.87;4.90;;;;;;;0.11;100.00;95688.78;5057058;28;20215;-71
2021/04/07 00:19:46;;;;;;;8.33;4.60;;;;;;;0.10;100.00;95689.78;5058855;28;20218;-68
2021/04/07 00:22:12;;;;;;;8.17;4.33;;;;;;;0.03;100.00;95685.22;5059101;28;20263;-69
2021/04/07 00:24:38;;;;;;;8.90;4.40;;;;;;;0.11;100.00;95683.63;5057933;28;20774;-68
2021/04/07 00:27:09;;;;;;;9.03;4.13;;;;;;;0.13;100.00;95681.72;5057845;28;20234;-71
2021/04/07 00:29:35;;;;;;;6.93;4.00;;;;;;;0.11;100.00;95686.22;5058047;28;20320;-71
2021/04/07 00:32:01;;;;;;;6.77;4.20;;;;;;;0.10;100.00;95687.19;5058897;28;20210;-72
2021/04/07 00:34:27;;;;;;;9.07;4.00;;;;;;;0.05;100.00;95684.16;5057876;28;20201;-71
2021/04/07 00:36:53;;;;;;;7.43;4.30;;;;;;;-0.07;100.00;95684.34;5058004;28;20201;-71
2021/04/07 00:39:19;;;;;;;8.47;4.17;;;;;;;-0.09;100.00;95686.22;5057796;28;20223;-70
2021/04/07 00:41:45;;;;;;;8.07;3.80;;;;;;;-0.03;100.00;95690.09;5058496;28;20200;-72
2021/04/07 00:44:12;;;;;;;14.53;4.17;;;;;;;0.02;100.00;95697.31;5058205;28;20228;-68
2021/04/07 00:46:38;;;;;;;7.50;3.63;;;;;;;0.02;99.63;95699.09;5057405;28;20220;-71
2021/04/07 00:49:04;;;;;;;8.40;3.47;;;;;;;0.03;98.99;95695.56;5058204;28;20204;-70
2021/04/07 00:51:30;;;;;;;5.73;3.57;;;;;;;-0.03;99.03;95705.63;5058122;28;20200;-71
2021/04/07 00:53:57;;;;;;;7.37;4.00;;;;;;;-0.15;98.72;95697.09;5057670;28;20573;-68
2021/04/07 00:56:23;;;;;;;7.63;3.97;;;;;;;-0.11;99.35;95697.69;5057347;28;21048;-67
2021/04/07 00:58:49;;;;;;;6.73;3.43;;;;;;;-0.17;97.84;95698.97;5058363;28;20200;-72
2021/04/07 01:01:15;;;;;;;2.90;1.93;;;;;;;-0.23;97.94;95704.69;5057259;28;20204;-71
2021/04/07 01:03:41;;;;;;;4.40;3.10;;;;;;;-0.27;98.90;95713.63;5057904;28;20200;-69
2021/04/07 01:06:08;;;;;;;4.67;3.07;;;;;;;-0.32;98.73;95714.94;5057096;28;20224;-71
2021/04/07 01:08:35;;;;;;;6.27;3.47;;;;;;;-0.27;99.42;95712.81;5057593;28;20204;-71
2021/04/07 01:11:02;;;;;;;4.57;2.77;;;;;;;-0.33;98.53;95714.13;5056848;28;20231;-68
2021/04/07 01:13:28;;;;;;;5.63;3.50;;;;;;;-0.32;98.71;95714.94;5057432;28;20211;-68
2021/04/07 01:15:54;;;;;;;4.70;3.27;;;;;;;-0.32;98.75;95714.94;5056535;28;20221;-71
2021/04/07 01:18:21;;;;;;;6.10;3.10;;;;;;;-0.37;100.00;95722.25;5057061;28;20200;-70
2021/04/07 01:20:48;;;;;;;4.33;3.10;;;;;;;-0.40;100.00;95722.50;5057349;28;20208;-68
2021/04/07 01:23:14;;;;;;;4.50;2.67;;;;;;;-0.41;100.00;95721.69;5057538;28;20205;-71
2021/04/07 01:25:42;;;;;;;4.93;2.97;;;;;;;-0.45;100.00;95717.69;5055859;28;20227;-72
2021/04/07 01:28:08;;;;;;;5.87;2.97;;;;;;;-0.50;100.00;95721.59;5057565;28;20211;-69
2021/04/07 01:30:45;;;;;;;4.23;3.10;;;;;;;-0.47;100.00;95729.94;5056005;28;20204;-69
2021/04/07 01:33:20;;;;;;;7.83;4.30;;;;;;;-0.47;100.00;95722.19;5056815;28;20204;-70
2021/04/07 01:35:46;;;;;;;3.93;2.80;;;;;;;-0.52;100.00;95720.94;5057125;28;20220;-71
2021/04/07 01:38:12;;;;;;;3.83;2.20;;;;;;;-0.55;100.00;95719.41;5057894;28;20703;-71
2021/04/07 01:40:42;;;;;;;2.80;2.00;;;;;;;-0.58;100.00;95721.41;5056832;28;20292;-68
2021/04/07 01:43:08;;;;;;;3.07;2.50;;;;;;;-0.61;100.00;95730.22;5057285;28;20200;-67
2021/04/07 01:45:35;;;;;;;5.10;2.57;;;;;;;-0.67;100.00;95729.91;5057064;28;20235;-71
2021/04/07 01:48:02;;;;;;;5.87;2.87;;;;;;;-0.68;100.00;95733.44;5056807;28;20204;-71
2021/04/07 01:50:28;;;;;;;3.40;1.90;;;;;;;-0.61;100.00;95734.59;5056922;28;20697;-70
2021/04/07 01:52:54;;;;;;;4.80;2.80;;;;;;;-0.63;100.00;95733.06;5057345;28;20263;-71
2021/04/07 01:55:20;;;;;;;3.83;2.17;;;;;;;-0.68;100.00;95738.59;5056283;28;21164;-71
2021/04/07 01:57:47;;;;;;;2.37;2.13;;;;;;;-0.69;100.00;95736.94;5057285;28;20211;-67
2021/04/07 02:00:16;;;;;;;4.63;2.70;;;;;;;-0.69;100.00;95736.94;5056727;28;20678;-71
2021/04/07 02:02:44;;;;;;;4.43;2.27;;;;;;;-0.65;100.00;95745.28;5056797;28;20894;-69
2021/04/07 02:05:11;;;;;;;4.43;2.63;;;;;;;-0.65;100.00;95740.94;5056260;28;21182;-72
2021/04/07 02:07:37;;;;;;;3.70;2.47;;;;;;;-0.72;100.00;95734.63;5056695;28;20249;-71
2021/04/07 02:10:06;;;;;;;4.03;2.57;;;;;;;-0.77;100.00;95752.25;5053879;28;20216;-70
2021/04/07 02:12:32;;;;;;;4.67;2.90;;;;;;;-0.79;100.00;95748.16;5056309;28;20200;-71
2021/04/07 02:14:59;;;;;;;6.57;2.83;;;;;;;-0.73;100.00;95745.09;5056628;28;20228;-68
2021/04/07 02:17:25;;;;;;;4.13;2.70;;;;;;;-0.76;100.00;95745.31;5056285;28;20230;-69
2021/04/07 02:19:51;;;;;;;4.73;3.20;;;;;;;-0.78;100.00;95737.69;5056760;28;20204;-68
2021/04/07 02:22:19;;;;;;;4.43;2.60;;;;;;;-0.72;100.00;95747.56;5056427;28;20674;-71
2021/04/07 02:24:47;;;;;;;4.77;2.83;;;;;;;-0.71;99.42;95744.03;5056268;28;20236;-68
2021/04/07 02:27:15;;;;;;;6.80;2.60;;;;;;;-0.72;99.81;95755.31;5055577;28;20289;-69
2021/04/07 02:29:42;;;;;;;5.60;3.30;;;;;;;-0.73;100.00;95756.25;5056263;28;20201;-71
2021/04/07 02:32:09;;;;;;;4.83;2.50;;;;;;;-0.68;98.38;95751.53;5056761;28;20211;-71
2021/04/07 02:34:36;;;;;;;6.43;2.57;;;;;;;-0.65;98.53;95758.22;5056566;28;20212;-70
2021/04/07 02:37:02;;;;;;;4.03;2.57;;;;;;;-0.64;98.61;95758.09;5055350;28;20738;-66
2021/04/07 02:39:28;;;;;;;5.80;3.13;;;;;;;-0.60;98.42;95756.91;5056530;28;20696;-71
2021/04/07 02:41:54;;;;;;;4.70;3.00;;;;;;;-0.63;99.09;95759.75;5060296;28;20212;-69
2021/04/07 02:44:21;;;;;;;4.13;2.33;;;;;;;-0.57;98.25;95760.09;5060942;28;20219;-70
2021/04/07 02:46:47;;;;;;;4.97;3.27;;;;;;;-0.57;97.92;95756.69;5059421;28;20714;-72
2021/04/07 02:49:14;;;;;;;4.33;2.90;;;;;;;-0.47;99.09;95757.56;5061502;28;20240;-68
2021/04/07 02:51:40;;;;;;;3.93;2.50;;;;;;;-0.50;98.52;95757.84;5060950;28;20211;-71
2021/04/07 02:54:06;;;;;;;5.87;3.00;;;;;;;-0.50;98.80;95763.00;5059929;28;20208;-71
2021/04/07 02:56:33;;;;;;;3.77;2.83;;;;;;;-0.51;98.77;95766.53;5059790;28;20227;-67
2021/04/07 02:58:59;;;;;;;5.57;2.90;;;;;;;-0.53;98.36;95765.84;5060879;28;20277;-71
2021/04/07 03:01:25;;;;;;;2.80;2.30;;;;;;;-0.57;98.77;95777.38;5060363;28;20212;-71
2021/04/07 03:03:52;;;;;;;3.17;2.37;;;;;;;-0.60;99.37;95769.84;5060396;28;20265;-67
2021/04/07 03:06:19;;;;;;;5.67;3.13;;;;;;;-0.63;99.74;95783.03;5059470;28;20229;-69
2021/04/07 03:08:45;;;;;;;4.17;2.80;;;;;;;-0.61;99.83;95783.75;5059571;28;20196;-71
2021/04/07 03:11:12;;;;;;;5.47;3.47;;;;;;;-0.58;99.28;95778.31;5060170;28;20208;-71
2021/04/07 03:13:38;;;;;;;4.50;3.07;;;;;;;-0.58;99.31;95786.09;5060142;28;20219;-68
2021/04/07 03:16:04;;;;;;;5.57;3.37;;;;;;;-0.57;99.34;95782.56;5059146;28;20220;-70
2021/04/07 03:18:30;;;;;;;6.00;3.07;;;;;;;-0.54;99.10;95788.28;5060067;28;20203;-70
2021/04/07 03:20:56;;;;;;;6.60;2.67;;;;;;;-0.63;99.39;95793.38;5060324;28;20199;-72
2021/04/07 03:23:23;;;;;;;4.97;3.23;;;;;;;-0.64;99.90;95789.16;5059648;28;20252;-70
2021/04/07 03:25:49;;;;;;;5.20;2.97;;;;;;;-0.62;99.87;95805.38;5058424;28;20697;-71
2021/04/07 03:28:15;;;;;;;3.67;2.10;;;;;;;-0.65;100.00;95800.44;5060349;28;21230;-71
2021/04/07 03:30:51;;;;;;;4.50;2.87;;;;;;;-0.55;100.00;95806.53;5059701;28;20958;-71
2021/04/07 03:33:18;;;;;;;5.53;3.47;;;;;;;-0.59;100.00;95810.31;5059810;28;20207;-71
2021/04/07 03:35:44;;;;;;;5.87;3.57;;;;;;;-0.61;100.00;95814.78;5058748;28;20674;-68
2021/04/07 03:38:10;;;;;;;4.43;2.57;;;;;;;-0.65;100.00;95821.13;5059690;28;20215;-71
2021/04/07 03:40:38;;;;;;;3.20;2.37;;;;;;;-0.65;100.00;95823.72;5059242;28;20212;-71
2021/04/07 03:43:09;;;;;;;4.70;3.30;;;;;;;-0.67;100.00;95828.19;5060189;28;20200;-71
2021/04/07 03:45:35;;;;;;;6.63;3.23;;;;;;;-0.70;100.00;95832.78;5058531;28;20235;-70
2021/04/07 03:48:01;;;;;;;5.97;3.10;;;;;;;-0.68;100.00;95844.66;5059367;28;20212;-70
2021/04/07 03:50:27;;;;;;;8.53;4.37;;;;;;;-0.66;100.00;95844.53;5059664;28;21098;-67
2021/04/07 03:52:53;;;;;;;7.13;4.27;;;;;;;-0.66;100.00;95842.78;5057968;28;20208;-71
2021/04/07 03:55:20;;;;;;;4.00;3.10;;;;;;;-0.67;100.00;95842.91;5057931;28;20232;-69
2021/04/07 03:57:47;;;;;;;6.67;3.83;;;;;;;-0.69;100.00;95844.78;5059136;28;20203;-69
2021/04/07 04:00:14;;;;;;;6.70;4.00;;;;;;;-0.71;100.00;95847.50;5060106;28;20203;-71
2021/04/07 04:02:40;;;;;;;7.40;3.30;;;;;;;-0.73;100.00;95858.91;5058370;28;20215;-70
2021/04/07 04:05:07;;;;;;;6.93;3.70;;;;;;;-0.79;100.00;95860.19;5058144;28;21169;-67
2021/04/07 04:07:33;;;;;;;8.17;3.90;;;;;;;-0.78;100.00;95861.81;5059487;28;20221;-72
2021/04/07 04:09:59;;;;;;;5.87;3.60;;;;;;;-0.82;100.00;95865.59;5058457;28;20213;-70
2021/04/07 04:12:25;;;;;;;8.27;4.20;;;;;;;-0.76;100.00;95864.28;5059620;28;20254;-69
2021/04/07 04:14:52;;;;;;;9.90;3.87;;;;;;;-0.78;100.00;95867.00;5058944;28;20220;-69
2021/04/07 04:17:18;;;;;;;3.67;2.87;;;;;;;-0.86;100.00;95874.53;5058349;28;20208;-69
2021/04/07 04:19:44;;;;;;;5.53;3.60;;;;;;;-0.85;100.00;95880.50;5058529;28;20717;-68
2021/04/07 04:22:10;;;;;;;6.23;3.40;;;;;;;-0.81;100.00;95880.16;5059035;28;20214;-71
2021/04/07 04:24:36;;;;;;;6.30;3.27;;;;;;;-0.82;100.00;95888.88;5058381;28;20227;-69
2021/04/07 04:27:04;;;;;;;10.17;4.90;;;;;;;-0.88;100.00;95904.88;5057927;28;20221;-69
2021/04/07 04:29:30;;;;;;;7.97;4.43;;;;;;;-0.82;100.00;95896.63;5059329;28;20211;-71
2021/04/07 04:31:57;;;;;;;7.50;4.27;;;;;;;-0.83;100.00;95902.72;5058626;28;20200;-71
2021/04/07 04:34:23;;;;;;;8.33;3.70;;;;;;;-0.81;100.00;95903.44;5058579;28;20216;-67
2021/04/07 04:36:49;;;;;;;7.80;4.47;;;;;;;-0.79;100.00;95906.75;5057698;28;20201;-70
2021/04/07 04:39:15;;;;;;;7.37;4.00;;;;;;;-0.79;100.00;95914.50;5059246;28;21019;-71
2021/04/07 04:41:41;;;;;;;7.63;4.40;;;;;;;-0.75;100.00;95926.28;5058203;28;20208;-70
2021/04/07 04:44:07;;;;;;;7.87;4.33;;;;;;;-0.78;100.00;95923.91;5058871;28;20212;-68
2021/04/07 04:46:33;;;;;;;11.70;4.70;;;;;;;-0.75;100.00;95934.03;5057100;28;20250;-70
2021/04/07 04:49:00;;;;;;;15.70;6.20;;;;;;;-0.78;100.00;95934.25;5058556;28;20285;-67
2021/04/07 04:51:26;;;;;;;11.63;5.30;;;;;;;-0.79;100.00;95942.97;5058147;28;20208;-72
2021/04/07 04:53:52;;;;;;;9.10;4.40;;;;;;;-0.82;100.00;95937.19;5058148;28;21204;-69
2021/04/07 04:56:18;;;;;;;9.93;4.57;;;;;;;-0.80;100.00;95946.47;5057362;28;20228;-72
2021/04/07 04:58:44;;;;;;;11.57;4.27;;;;;;;-0.79;100.00;95942.97;5058175;28;20204;-71
2021/04/07 05:01:10;;;;;;;12.50;6.10;;;;;;;-0.84;100.00;95947.66;5058523;28;20200;-67
2021/04/07 05:03:36;;;;;;;8.17;3.87;;;;;;;-0.76;100.00;95947.91;5057774;28;20838;-71
2021/04/07 05:06:03;;;;;;;10.77;5.63;;;;;;;-0.76;100.00;95954.81;5056483;28;20232;-67
2021/04/07 05:08:29;;;;;;;6.00;3.83;;;;;;;-0.75;100.00;95959.91;5058771;28;20196;-68
2021/04/07 05:10:55;;;;;;;14.13;6.53;;;;;;;-0.72;100.00;95953.66;5058274;28;20208;-68
2021/04/07 05:13:21;;;;;;;7.47;3.70;;;;;;;-0.76;100.00;95954.81;5057810;28;20212;-70
2021/04/07 05:15:47;;;;;;;13.20;5.67;;;;;;;-0.72;100.00;95961.44;5056901;28;20239;-71
2021/04/07 05:18:14;;;;;;;14.30;5.93;;;;;;;-0.72;100.00;95964.81;5058543;28;20662;-71
2021/04/07 05:20:40;;;;;;;12.40;5.50;;;;;;;-0.72;99.99;95977.75;5057496;28;20622;-69
2021/04/07 05:23:09;;;;;;;7.77;4.50;;;;;;;-0.69;100.00;95985.28;5057695;28;20216;-69
2021/04/07 05:25:36;;;;;;;8.10;4.20;;;;;;;-0.70;99.36;95982.81;5056347;28;20601;-71
2021/04/07 05:28:02;;;;;;;8.23;4.03;;;;;;;-0.71;97.86;95982.00;5057161;28;20273;-72
2021/04/07 05:30:58;;;;;;;10.17;5.20;;;;;;;-0.68;98.85;95989.50;5057833;28;20205;-69
2021/04/07 05:33:14;;;;;;;9.97;4.77;;;;;;;-0.61;98.10;96001.06;5057788;28;20299;-71
2021/04/07 05:35:40;;;;;;;8.80;4.23;;;;;;;-0.64;97.28;96003.06;5056904;28;20224;-68
2021/04/07 05:38:07;;;;;;;10.07;4.93;;;;;;;-0.64;97.17;96016.78;5057400;28;20211;-70
2021/04/07 05:40:33;;;;;;;5.67;3.17;;;;;;;-0.62;97.71;96017.53;5057370;28;20197;-68
2021/04/07 05:43:01;;;;;;;9.50;4.73;;;;;;;-0.57;97.27;96025.75;5056996;28;20205;-71
2021/04/07 05:45:27;;;;;;;8.07;4.40;;;;;;;-0.57;96.69;96025.75;5056709;28;20694;-69
2021/04/07 05:47:53;;;;;;;5.60;3.00;;;;;;;-0.40;95.30;96027.88;5056513;28;20220;-72
2021/04/07 05:50:19;;;;;;;7.27;3.23;;;;;;;-0.29;95.13;96036.50;5057924;28;20212;-71
2021/04/07 05:52:49;;;;;;;12.27;5.17;;;;;;;-0.40;94.78;96043.41;5057126;28;20211;-70
2021/04/07 05:55:16;;;;;;;8.17;3.50;;;;;;;-0.37;93.94;96043.19;5056761;28;20221;-71
2021/04/07 05:57:42;;;;;;;6.27;3.03;;;;;;;-0.44;92.87;96047.19;5056797;28;20570;-71
2021/04/07 06:00:09;;;;;;;5.77;3.47;;;;;;;-0.47;93.53;96047.41;5057124;28;20212;-71
2021/04/07 06:02:35;;;;;;;7.57;3.50;;;;;;;-0.47;93.54;96053.41;5056788;28;20197;-70
2021/04/07 06:05:01;;;;;;;5.07;3.07;;;;;;;-0.50;91.51;96051.06;5056447;28;20226;-67
2021/04/07 06:07:27;;;;;;;7.50;3.63;;;;;;;-0.45;90.44;96050.69;5056620;28;20229;-71
2021/04/07 06:09:53;;;;;;;10.07;4.10;;;;;;;-0.38;91.37;96057.91;5057072;28;20228;-72
2021/04/07 06:12:20;;;;;;;10.73;4.90;;;;;;;-0.26;91.69;96059.53;5056648;28;20211;-71
2021/04/07 06:14:46;;;;;;;6.90;1.73;;;;;;;-0.31;91.59;96063.44;5055541;28;20228;-71
2021/04/07 06:17:12;;;;;;;5.70;3.43;;;;;;;-0.47;91.99;96078.44;5056528;28;20196;-69
2021/04/07 06:19:38;;;;;;;7.87;4.23;;;;;;;-0.46;97.04;96077.50;5056600;28;20200;-70
2021/04/07 06:22:04;;;;;;;6.03;3.10;;;;;;;-0.49;99.10;96085.53;5056852;28;20703;-70
2021/04/07 06:24:30;;;;;;;10.00;3.50;;;;;;;-0.57;99.49;96085.28;5056707;28;20261;-70
2021/04/07 06:26:56;;;;;;;6.57;3.83;;;;;;;-0.51;100.00;96085.63;5055664;28;20232;-69
2021/04/07 06:29:23;;;;;;;7.33;4.20;;;;;;;-0.43;97.52;96100.59;5053585;28;20205;-70
2021/04/07 06:31:49;;;;;;;8.07;3.57;;;;;;;-0.42;94.78;96104.81;5055296;28;20208;-69
2021/04/07 06:34:15;;;;;;;4.00;2.53;;;;;;;-0.28;94.37;96102.00;5055443;28;20214;-68
2021/04/07 06:36:41;;;;;;;7.77;3.93;;;;;;;-0.11;93.21;96107.59;5055955;28;20201;-71
2021/04/07 06:39:07;;;;;;;6.60;3.37;;;;;;;0.03;92.03;96110.75;5054043;28;20279;-70
2021/04/07 06:41:34;;;;;;;4.97;2.30;;;;;;;0.21;91.99;96108.53;5055955;28;20211;-71
2021/04/07 06:44:01;;;;;;;11.70;3.93;;;;;;;0.20;93.89;96112.88;5056056;28;20205;-67
2021/04/07 06:46:28;;;;;;;4.83;2.63;;;;;;;0.09;93.75;96125.84;5055648;28;21238;-68
2021/04/07 06:48:55;;;;;;;12.10;3.37;;;;;;;0.03;94.78;96130.66;5055291;28;20201;-70
2021/04/07 06:51:22;;;;;;;7.13;4.03;;;;;;;0.20;95.62;96138.78;5056672;28;20685;-71
2021/04/07 06:53:50;;;;;;;8.67;3.30;;;;;;;0.18;95.12;96132.91;5054862;28;20205;-67
2021/04/07 06:56:16;;;;;;;3.33;2.17;;;;;;;0.14;94.52;96144.44;5055320;28;20252;-71
2021/04/07 06:58:42;;;;;;;7.83;4.20;;;;;;;0.09;94.16;96140.56;5054207;28;20216;-71
2021/04/07 07:01:08;;;;;;;7.63;3.30;;;;;;;0.07;94.45;96147.63;5054464;28;20220;-68
2021/04/07 07:03:35;;;;;;;8.57;4.17;;;;;;;0.11;93.68;96139.47;5053544;28;20248;-72
2021/04/07 07:06:02;;;;;;;9.47;3.73;;;;;;;0.03;92.42;96149.59;5053148;28;20262;-69
2021/04/07 07:08:31;;;;;;;7.20;3.50;;;;;;;0.04;92.39;96163.41;5056437;28;20212;-68
2021/04/07 07:11:07;;;;;;;9.43;3.20;;;;;;;-0.01;89.94;96158.56;5056407;28;20212;-71
2021/04/07 07:13:35;;;;;;;7.13;3.27;;;;;;;-0.03;88.19;96175.16;5056195;28;20577;-70
2021/04/07 07:16:01;;;;;;;3.57;2.10;;;;;;;-0.04;88.41;96176.06;5055116;28;20232;-67
2021/04/07 07:18:28;;;;;;;5.37;2.80;;;;;;;0.04;89.49;96178.94;5056967;28;20211;-71
2021/04/07 07:20:57;;;;;;;3.67;2.17;;;;;;;0.14;88.80;96175.53;5055767;28;20205;-72
2021/04/07 07:23:24;;;;;;;4.77;2.00;;;;;;;0.13;87.52;96179.06;5056399;28;20205;-71
2021/04/07 07:25:57;;;;;;;6.67;2.47;;;;;;;0.23;85.52;96189.53;5055127;28;20220;-67
2021/04/07 07:28:24;;;;;;;7.67;2.73;;;;;;;0.27;85.95;96191.78;5059804;28;20204;-71
2021/04/07 07:30:50;;;;;;;5.70;2.97;;;;;;;0.31;86.04;96195.00;5058893;28;20837;-71
2021/04/07 07:33:18;;;;;;;5.07;2.60;;;;;;;0.35;84.01;96205.00;5060242;28;20208;-71
2021/04/07 07:35:46;;;;;;;3.97;1.97;;;;;;;0.45;84.99;96198.16;5058514;28;21063;-70
2021/04/07 07:38:19;;;;;;;4.67;2.40;;;;;;;0.58;85.75;96201.47;5058727;28;20749;-69
2021/04/07 07:40:45;;;;;;;5.00;2.80;;;;;;;0.73;86.43;96201.09;5059499;28;20201;-69
2021/04/07 07:43:12;;;;;;;4.60;2.47;;;;;;;0.70;83.73;96205.69;5059565;28;20211;-70
2021/04/07 07:45:40;;;;;;;5.47;2.77;;;;;;;0.60;84.96;96207.38;5058130;28;20248;-69
2021/04/07 07:48:12;;;;;;;6.00;3.00;;;;;;;0.65;84.33;96213.84;5057822;28;20311;-69
2021/04/07 07:50:41;;;;;;;6.60;1.53;;;;;;;0.46;83.18;96210.19;5057284;28;21028;-68
2021/04/07 07:53:16;;;;;;;4.23;1.97;;;;;;;0.50;81.09;96219.38;5057964;28;20217;-70
2021/04/07 07:55:45;;;;;;;4.00;1.47;;;;;;;0.47;81.33;96235.19;5057597;28;20333;-69
2021/04/07 07:58:11;;;;;;;4.30;1.90;;;;;;;0.45;81.97;96225.88;5059100;28;20196;-70
2021/04/07 08:00:38;;;;;;;4.77;1.87;;;;;;;0.59;81.81;96231.63;5058320;28;20211;-68
2021/04/07 08:03:21;;;;;;;3.43;2.03;;;;;;;0.69;80.05;96240.38;5058383;28;20220;-69
2021/04/07 08:05:47;;;;;;;6.00;2.23;;;;;;;0.73;78.63;96234.00;5057937;28;20235;-70
2021/04/07 08:08:14;;;;;;;5.23;2.50;;;;;;;0.70;78.60;96237.66;5057397;28;20906;-70
2021/04/07 08:10:40;;;;;;;3.07;2.00;;;;;;;0.67;79.52;96239.66;5058463;28;20216;-68
2021/04/07 08:13:10;;;;;;;6.40;2.47;;;;;;;0.85;80.66;96243.41;5058201;28;20204;-70
2021/04/07 08:15:37;;;;;;;7.83;2.50;;;;;;;0.94;78.73;96242.69;5056318;28;21017;-69
2021/04/07 08:18:06;;;;;;;6.60;2.43;;;;;;;1.22;79.11;96251.63;5057887;28;20212;-70
2021/04/07 08:20:33;;;;;;;4.03;2.27;;;;;;;1.31;78.19;96248.31;5057879;28;20270;-70
2021/04/07 08:23:00;;;;;;;5.00;2.13;;;;;;;1.51;76.48;96244.13;5058366;28;20223;-68
2021/04/07 08:25:27;;;;;;;6.80;1.90;;;;;;;1.45;72.30;96247.22;5057482;28;20278;-70
2021/04/07 08:27:55;;;;;;;8.03;2.17;;;;;;;1.45;74.04;96250.66;5058000;28;20227;-69
2021/04/07 08:30:22;;;;;;;2.27;1.60;;;;;;;1.30;74.31;96264.81;5058423;28;20208;-68
2021/04/07 08:32:51;;;;;;;5.33;1.90;;;;;;;1.23;73.20;96268.88;5057734;28;20765;-70
2021/04/07 08:35:18;;;;;;;4.53;1.33;;;;;;;1.33;72.51;96268.97;5058167;28;20722;-70
2021/04/07 08:37:55;;;;;;;3.03;1.13;;;;;;;1.41;69.19;96282.16;5057655;28;20198;-69
2021/04/07 08:40:22;;;;;;;4.87;1.90;;;;;;;1.49;70.25;96282.34;5057544;28;20283;-70
2021/04/07 08:42:49;;;;;;;5.13;1.77;;;;;;;1.50;66.36;96271.88;5057946;28;20211;-68
2021/04/07 08:45:15;;;;;;;2.97;1.23;;;;;;;1.61;64.87;96274.44;5058542;28;20228;-70
2021/04/07 08:47:51;;;;;;;7.50;2.07;;;;;;;1.69;69.36;96281.63;5057542;28;20217;-68
2021/04/07 08:50:17;;;;;;;4.43;1.50;;;;;;;1.69;66.32;96282.41;5057389;28;21122;-68
2021/04/07 08:52:45;;;;;;;8.43;1.60;;;;;;;1.71;68.31;96287.53;5058044;28;20217;-70
2021/04/07 08:55:18;;;;;;;2.83;1.60;;;;;;;1.76;64.57;96286.19;5057450;28;20224;-70
2021/04/07 08:57:44;;;;;;;2.47;1.23;;;;;;;1.76;65.78;96283.59;5057860;28;20197;-70
2021/04/07 09:00:14;;;;;;;3.87;1.50;;;;;;;2.03;66.56;96286.56;5057246;28;20204;-70
2021/04/07 09:02:47;;;;;;;2.10;1.70;;;;;;;2.07;65.82;96291.38;5056933;28;20202;-70
2021/04/07 09:05:14;;;;;;;4.77;1.27;;;;;;;1.81;62.82;96289.25;5057060;28;20234;-69
2021/04/07 09:07:41;;;;;;;3.87;1.23;;;;;;;1.82;63.33;96298.72;5057343;28;21258;-70
2021/04/07 09:10:15;;;;;;;7.23;1.40;;;;;;;1.75;66.25;96302.72;5056719;28;20208;-69
2021/04/07 09:12:43;;;;;;;3.43;1.13;;;;;;;1.66;64.15;96295.66;5056933;28;20235;-70
2021/04/07 09:15:19;;;;;;;4.00;1.40;;;;;;;1.64;63.21;96310.53;5056360;28;20233;-69
2021/04/07 09:17:46;;;;;;;1.80;1.30;;;;;;;1.46;64.21;96317.19;5056902;28;20201;-69
2021/04/07 09:20:38;;;;;;;2.70;0.97;;;;;;;1.34;63.26;96312.16;5057522;28;21241;-69
2021/04/07 09:23:07;;;;;;;3.63;1.13;;;;;;;1.43;65.03;96319.22;5055741;28;20569;-69
2021/04/07 09:25:34;;;;;;;3.00;1.07;;;;;;;1.46;65.81;96317.19;5055953;28;20327;-70
2021/04/07 09:28:08;;;;;;;5.87;1.53;;;;;;;1.63;66.26;96310.66;5056878;28;20239;-70
2021/04/07 09:30:47;;;;;;;5.13;1.80;;;;;;;1.61;67.69;96315.97;5057375;28;20200;-69
2021/04/07 09:33:18;;;;;;;6.50;1.47;;;;;;;1.28;69.26;96323.81;5056643;28;20196;-70
2021/04/07 09:35:55;;;;;;;3.07;1.77;;;;;;;1.35;69.64;96330.19;5055931;28;20290;-68
2021/04/07 09:38:21;;;;;;;5.57;2.40;;;;;;;1.65;71.23;96319.16;5056954;28;20200;-68
2021/04/07 09:40:48;;;;;;;4.67;1.43;;;;;;;1.99;65.81;96313.75;5056651;28;20209;-69
2021/04/07 09:43:14;;;;;;;4.17;1.40;;;;;;;2.46;63.64;96317.53;5057287;28;20206;-69
2021/04/07 09:45:40;;;;;;;6.13;1.73;;;;;;;2.49;63.75;96306.88;5055684;28;20899;-70
2021/04/07 09:48:08;;;;;;;4.57;1.30;;;;;;;2.26;62.04;96316.72;5056925;28;20226;-69
2021/04/07 09:50:35;;;;;;;3.90;1.67;;;;;;;2.01;63.42;96317.88;5056266;28;20582;-70
2021/04/07 09:53:01;;;;;;;2.97;1.30;;;;;;;1.91;62.78;96318.75;5056111;28;20204;-70
2021/04/07 09:55:27;;;;;;;4.80;1.30;;;;;;;2.08;65.07;96318.22;5055889;28;20230;-70
2021/04/07 09:58:01;;;;;;;5.97;1.80;;;;;;;2.29;64.57;96321.66;5056688;28;20204;-69
2021/04/07 10:00:32;;;;;;;2.90;1.20;;;;;;;2.41;63.88;96317.09;5056360;28;20209;-69
2021/04/07 10:03:00;;;;;;;5.23;1.83;;;;;;;2.31;62.97;96317.16;5056155;28;20262;-68
2021/04/07 10:05:29;;;;;;;2.03;1.07;;;;;;;2.41;62.31;96335.28;5055126;28;20220;-69
2021/04/07 10:08:11;;;;;;;4.17;1.60;;;;;;;2.65;65.00;96329.88;5055860;28;21146;-69
2021/04/07 10:10:37;;;;;;;4.27;1.60;;;;;;;2.60;63.69;96332.84;5055847;28;20344;-70
2021/04/07 10:13:04;;;;;;;6.63;1.17;;;;;;;2.43;63.48;96332.56;5056691;28;20212;-69
2021/04/07 10:15:30;;;;;;;5.93;1.40;;;;;;;2.43;65.36;96342.97;5055557;28;20227;-69
2021/04/07 10:17:56;;;;;;;6.37;1.70;;;;;;;2.28;65.34;96331.25;5056052;28;20315;-68
2021/04/07 10:20:29;;;;;;;6.30;1.70;;;;;;;2.83;67.08;96329.16;5055627;28;20268;-69
2021/04/07 10:22:56;;;;;;;3.17;1.83;;;;;;;3.30;65.32;96325.97;5055536;28;20211;-69
2021/04/07 10:25:23;;;;;;;4.37;1.80;;;;;;;3.41;64.03;96342.31;5055371;28;20273;-68
2021/04/07 10:27:49;;;;;;;1.43;1.10;;;;;;;2.80;61.99;96336.38;5055858;28;20219;-69
2021/04/07 10:30:17;;;;;;;2.77;1.50;;;;;;;2.63;65.85;96340.38;5055845;28;20292;-69
2021/04/07 10:32:45;;;;;;;3.53;1.47;;;;;;;2.68;65.00;96338.22;5056173;28;20202;-69
2021/04/07 10:35:18;;;;;;;6.07;1.43;;;;;;;2.92;64.29;96343.19;5052677;28;20796;-68
2021/04/07 10:37:52;;;;;;;4.73;1.73;;;;;;;3.31;64.06;96338.84;5056290;28;20200;-69
2021/04/07 10:40:19;;;;;;;2.50;1.30;;;;;;;3.60;61.60;96344.16;5056024;28;20200;-68
2021/04/07 10:42:46;;;;;;;3.50;1.43;;;;;;;3.51;60.19;96344.94;5056435;28;21077;-68
2021/04/07 10:45:14;;;;;;;5.07;1.17;;;;;;;3.29;59.98;96340.75;5055472;28;20227;-70
2021/04/07 10:47:40;;;;;;;2.90;1.40;;;;;;;3.21;60.23;96350.19;5055279;28;20239;-69
2021/04/07 10:50:08;;;;;;;6.30;1.67;;;;;;;3.05;60.78;96347.22;5056242;28;20219;-68
2021/04/07 10:52:35;;;;;;;3.63;1.60;;;;;;;3.10;61.67;96356.28;5056466;28;20260;-68
2021/04/07 10:55:05;;;;;;;3.67;1.90;;;;;;;2.91;61.65;96363.16;5054655;28;20224;-68
2021/04/07 10:57:37;;;;;;;3.77;1.73;;;;;;;3.19;61.47;96349.47;5053674;28;20232;-69
2021/04/07 11:00:09;;;;;;;7.60;2.47;;;;;;;3.48;58.83;96346.03;5055388;28;20211;-69
2021/04/07 11:02:47;;;;;;;2.40;1.47;;;;;;;3.62;58.76;96337.84;5053033;28;20271;-68
2021/04/07 11:05:15;;;;;;;5.67;1.70;;;;;;;3.61;59.85;96331.00;5058389;28;20278;-69
2021/04/07 11:07:42;;;;;;;2.97;1.37;;;;;;;3.56;59.91;96340.19;5059944;28;20225;-70
2021/04/07 11:10:11;;;;;;;3.13;1.10;;;;;;;3.46;59.25;96336.69;5058393;28;20585;-68
2021/04/07 11:12:37;;;;;;;1.07;0.80;;;;;;;3.12;59.83;96345.75;5058988;28;21033;-69
2021/04/07 11:15:05;;;;;;;2.60;1.30;;;;;;;3.04;59.44;96337.75;5059273;28;20224;-68
2021/04/07 11:17:32;;;;;;;4.40;1.40;;;;;;;3.07;62.69;96340.09;5058980;28;20214;-69
2021/04/07 11:19:58;;;;;;;2.47;1.40;;;;;;;3.19;65.22;96344.28;5059206;28;20594;-70
2021/04/07 11:22:24;;;;;;;4.10;1.37;;;;;;;3.03;63.68;96349.94;5059826;28;20231;-69
2021/04/07 11:24:50;;;;;;;2.43;1.00;;;;;;;3.08;62.08;96363.41;5060008;28;20266;-70
2021/04/07 11:27:17;;;;;;;2.27;1.40;;;;;;;3.11;61.95;96357.13;5057620;28;20217;-70
2021/04/07 11:29:43;;;;;;;2.87;1.73;;;;;;;3.32;64.06;96370.91;5060144;28;20584;-68
2021/04/07 11:32:10;;;;;;;1.43;1.10;;;;;;;3.49;62.63;96362.47;5058429;28;20598;-69
2021/04/07 11:34:40;;;;;;;3.30;1.43;;;;;;;3.41;63.87;96357.09;5055509;28;20248;-71